Wytheville, Virginia
Current Conditions -  °F | °C
As of 5:15 PM on Wednesday 28 Jan 2015 (Local Time) from KMKJ Reporting Station
Clear Clear  
Wind Chill: 28°   Ceiling: Unl
Heat Index: 35°   Visibility: 10mi
Dew Point: 18°   Wind: 9mph
Humidity: 51%   Direction: 250°WSW
Pressure: 30.23"   Gusts: NA
Location:  36.95°N, 81.08°W
Report Text: KMKJ 282215Z AUTO 25008KT 10SM CLR 02/M08 A3023 RMK AO2 T00171076
Loading
Personal Weather Stations






























Interactive Weather Map New forecast layout! Learn more

10-Day Weather Forecast

Advertisements
Track Severe Weather on mobile